createdAt,value
2022-08-12T00:02:01.995Z,63.00
2022-08-12T00:04:24.200Z,63.17
2022-08-12T00:06:47.363Z,63.67
2022-08-12T00:09:08.439Z,64.63
2022-08-12T00:11:30.555Z,64.61
2022-08-12T00:13:51.578Z,64.90
2022-08-12T00:16:12.428Z,65.56
2022-08-12T00:18:33.378Z,65.18
2022-08-12T00:20:55.747Z,65.45
2022-08-12T00:23:17.161Z,65.76
2022-08-12T00:26:01.381Z,65.38
2022-08-12T00:28:20.715Z,65.90
2022-08-12T00:30:41.926Z,65.81
2022-08-12T00:33:04.097Z,66.16
2022-08-12T00:35:36.570Z,66.26
2022-08-12T00:37:58.036Z,66.89
2022-08-12T00:40:19.134Z,67.32
2022-08-12T00:42:23.357Z,67.46
2022-08-12T00:44:30.018Z,67.96
2022-08-12T00:46:45.807Z,68.38
2022-08-12T00:48:50.221Z,68.13
2022-08-12T00:50:57.208Z,68.63
2022-08-12T00:53:03.281Z,68.01
2022-08-12T00:55:07.715Z,68.34
2022-08-12T00:57:14.919Z,68.42
2022-08-12T00:59:18.662Z,68.42
2022-08-12T01:01:24.950Z,68.77
2022-08-12T01:03:51.953Z,68.84
2022-08-12T01:06:17.234Z,68.55
2022-08-12T01:08:43.407Z,68.63
2022-08-12T01:11:05.692Z,68.34
2022-08-12T01:13:19.325Z,68.74
2022-08-12T01:15:24.030Z,68.68
2022-08-12T01:17:30.070Z,68.55
2022-08-12T01:19:35.022Z,68.57
2022-08-12T01:22:06.254Z,68.53
2022-08-12T01:24:28.149Z,68.86
2022-08-12T01:26:39.817Z,69.13
2022-08-12T01:28:45.994Z,68.65
2022-08-12T01:30:51.797Z,68.67
2022-08-12T01:33:00.643Z,69.26
2022-08-12T01:35:07.494Z,69.43
2022-08-12T01:37:11.727Z,69.04
2022-08-12T01:39:18.342Z,69.13
2022-08-12T01:41:25.653Z,69.05
2022-08-12T01:43:32.062Z,69.35
2022-08-12T01:45:43.151Z,69.36
2022-08-12T01:47:58.165Z,69.20
2022-08-12T01:50:19.197Z,68.92
2022-08-12T01:52:36.180Z,69.97
2022-08-12T01:54:44.609Z,69.19
2022-08-12T01:56:53.169Z,69.30
2022-08-12T01:59:20.553Z,69.07
2022-08-12T02:01:30.709Z,69.07
2022-08-12T02:04:07.659Z,69.39
2022-08-12T02:06:38.938Z,69.66
2022-08-12T02:09:05.815Z,69.92
2022-08-12T02:11:21.658Z,70.38
2022-08-12T02:13:48.749Z,70.28
2022-08-12T02:16:00.307Z,70.48
2022-08-12T02:18:13.668Z,70.72
2022-08-12T02:20:24.418Z,70.84
2022-08-12T02:22:48.799Z,70.93
2022-08-12T02:24:54.701Z,71.17
2022-08-12T02:26:59.428Z,71.37
2022-08-12T02:29:03.981Z,71.23
2022-08-12T02:31:11.883Z,71.10
2022-08-12T02:33:17.544Z,71.53
2022-08-12T02:35:23.290Z,71.64
2022-08-12T02:37:30.478Z,71.75
2022-08-12T02:39:35.651Z,71.64
2022-08-12T02:41:44.100Z,71.60
2022-08-12T02:43:52.827Z,71.91
2022-08-12T02:46:01.779Z,72.01
2022-08-12T02:48:09.431Z,72.06
2022-08-12T02:50:16.310Z,72.00
2022-08-12T02:52:21.067Z,72.37
2022-08-12T02:54:26.467Z,72.09
2022-08-12T02:56:31.234Z,72.41
2022-08-12T02:58:41.424Z,72.40
2022-08-12T03:00:49.849Z,72.41
2022-08-12T03:02:56.262Z,72.43
2022-08-12T03:05:06.464Z,72.06
2022-08-12T03:07:13.065Z,72.33
2022-08-12T03:09:18.857Z,72.18
2022-08-12T03:11:27.478Z,72.26
2022-08-12T03:13:36.561Z,72.21
2022-08-12T03:15:40.858Z,72.64
2022-08-12T03:18:24.797Z,72.45
2022-08-12T03:20:28.062Z,72.67
2022-08-12T03:22:35.328Z,72.86
2022-08-12T03:24:42.525Z,72.99
2022-08-12T03:26:48.888Z,73.23
2022-08-12T03:28:54.435Z,73.08
2022-08-12T03:31:02.330Z,73.33
2022-08-12T03:33:07.219Z,73.16
2022-08-12T03:35:40.384Z,73.38
2022-08-12T03:37:43.015Z,73.45
2022-08-12T03:39:47.222Z,73.16
2022-08-12T03:41:57.991Z,73.25
2022-08-12T03:44:25.750Z,73.16
2022-08-12T03:46:52.388Z,73.19
2022-08-12T03:49:14.159Z,73.45
2022-08-12T03:51:35.087Z,73.36
2022-08-12T03:53:58.096Z,73.29
2022-08-12T03:56:19.170Z,73.47
2022-08-12T03:58:40.905Z,73.41
2022-08-12T04:00:46.284Z,73.22
2022-08-12T04:02:59.294Z,73.45
2022-08-12T04:05:03.993Z,73.45
2022-08-12T04:07:10.072Z,73.52
2022-08-12T04:09:16.420Z,73.64
2022-08-12T04:11:46.840Z,74.09
2022-08-12T04:13:51.868Z,74.02
2022-08-12T04:15:55.546Z,74.20
2022-08-12T04:18:07.068Z,74.26
2022-08-12T04:20:13.721Z,73.92
2022-08-12T04:22:17.533Z,74.06
2022-08-12T04:24:25.062Z,74.10
2022-08-12T04:26:29.221Z,74.05
2022-08-12T04:28:32.773Z,74.11
2022-08-12T04:30:38.095Z,74.79
2022-08-12T04:32:44.419Z,74.74
2022-08-12T04:34:48.642Z,75.04
2022-08-12T04:36:54.109Z,75.27
2022-08-12T04:38:59.804Z,75.39
2022-08-12T04:41:06.052Z,75.71
2022-08-12T04:44:00.724Z,75.91
2022-08-12T04:45:38.483Z,76.39
2022-08-12T04:47:42.260Z,76.05
2022-08-12T04:49:46.978Z,75.57
2022-08-12T04:51:57.611Z,75.95
2022-08-12T04:54:03.801Z,75.73
2022-08-12T04:56:11.147Z,75.71
2022-08-12T04:58:15.066Z,75.81
2022-08-12T05:00:18.746Z,75.75
2022-08-12T05:02:22.975Z,75.67
2022-08-12T05:04:28.185Z,75.77
2022-08-12T05:06:31.519Z,75.95
2022-08-12T05:08:37.030Z,75.82
2022-08-12T05:10:40.579Z,75.88
2022-08-12T05:12:49.074Z,75.87
2022-08-12T05:14:52.452Z,75.52
2022-08-12T05:16:55.706Z,75.46
2022-08-12T05:18:59.753Z,75.50
2022-08-12T05:21:03.353Z,75.25
2022-08-12T05:23:12.438Z,75.39
2022-08-12T05:25:18.461Z,75.46
2022-08-12T05:27:22.760Z,75.52
2022-08-12T05:30:06.534Z,75.68
2022-08-12T05:31:56.055Z,75.57
2022-08-12T05:33:59.339Z,75.52
2022-08-12T05:36:02.765Z,75.49
2022-08-12T05:38:23.501Z,75.37
2022-08-12T05:40:26.854Z,75.11
2022-08-12T05:42:32.531Z,75.10
2022-08-12T05:44:39.407Z,75.18
2022-08-12T05:46:42.852Z,75.17
2022-08-12T05:48:46.573Z,74.84
2022-08-12T05:50:50.410Z,74.62
2022-08-12T05:52:54.174Z,74.63
2022-08-12T05:54:58.076Z,74.80
2022-08-12T05:57:01.466Z,74.72
2022-08-12T05:59:07.816Z,74.67
2022-08-12T06:02:11.981Z,74.82
2022-08-12T06:03:35.935Z,74.14
2022-08-12T06:05:52.694Z,74.68
2022-08-12T06:08:02.880Z,74.30
2022-08-12T06:10:07.306Z,73.89
2022-08-12T06:12:11.668Z,73.51
2022-08-12T06:14:14.911Z,73.42
2022-08-12T06:16:23.710Z,73.23
2022-08-12T06:18:29.882Z,72.92
2022-08-12T06:20:33.899Z,72.58
2022-08-12T06:22:37.667Z,69.33
2022-08-12T06:24:41.099Z,65.27
2022-08-12T06:26:44.613Z,60.95
2022-08-12T06:28:51.097Z,57.26
2022-08-12T06:31:24.285Z,54.12
2022-08-12T06:33:22.338Z,51.19
2022-08-12T06:35:47.956Z,49.22
2022-08-12T06:37:56.769Z,47.45
2022-08-12T06:40:03.877Z,46.52
2022-08-12T06:42:33.685Z,45.25
2022-08-12T06:44:37.059Z,44.82
2022-08-12T06:46:40.285Z,44.16
2022-08-12T06:48:45.074Z,43.67
2022-08-12T06:50:49.345Z,43.18
2022-08-12T06:52:53.150Z,43.32
2022-08-12T06:54:58.646Z,43.52
2022-08-12T06:57:04.790Z,43.95
2022-08-12T06:59:08.943Z,45.14
2022-08-12T07:01:13.129Z,45.26
2022-08-12T07:03:27.863Z,45.35
2022-08-12T07:05:33.247Z,44.56
2022-08-12T07:07:39.012Z,43.36
2022-08-12T07:10:06.818Z,44.05
2022-08-12T07:12:19.948Z,44.93
2022-08-12T07:14:24.620Z,45.33
2022-08-12T07:16:48.106Z,45.40
2022-08-12T07:18:53.851Z,45.14
2022-08-12T07:21:01.167Z,44.56
2022-08-12T07:23:06.902Z,44.57
2022-08-12T07:25:28.295Z,43.40
2022-08-12T07:27:31.582Z,44.86
2022-08-12T07:30:03.764Z,45.49
2022-08-12T07:31:59.858Z,44.57
2022-08-12T07:34:03.207Z,44.35
2022-08-12T07:36:10.803Z,45.21
2022-08-12T07:38:28.816Z,44.53
2022-08-12T07:40:33.358Z,44.28
2022-08-12T07:42:36.885Z,43.88
2022-08-12T07:44:40.340Z,43.55
2022-08-12T07:46:44.655Z,42.52
2022-08-12T07:48:52.157Z,41.28
2022-08-12T07:50:56.011Z,40.79
2022-08-12T07:53:01.243Z,40.72
2022-08-12T07:55:05.556Z,40.93
2022-08-12T07:57:12.546Z,41.05
2022-08-12T07:59:16.082Z,42.07
2022-08-12T08:01:21.850Z,42.55
2022-08-12T08:03:26.052Z,42.71
2022-08-12T08:05:31.845Z,43.23
2022-08-12T08:07:35.268Z,44.03
2022-08-12T08:09:40.123Z,43.41
2022-08-12T08:12:01.132Z,43.70
2022-08-12T08:14:06.275Z,44.50
2022-08-12T08:16:10.282Z,44.33
2022-08-12T08:18:26.435Z,45.17
2022-08-12T08:20:34.011Z,46.05
2022-08-12T08:22:41.921Z,47.44
2022-08-12T08:24:47.260Z,48.74
2022-08-12T08:26:52.295Z,49.64
2022-08-12T08:28:55.791Z,50.31
2022-08-12T08:30:59.193Z,51.26
2022-08-12T08:33:02.561Z,51.90
2022-08-12T08:35:14.799Z,52.46
2022-08-12T08:37:21.369Z,52.38
2022-08-12T08:39:28.315Z,52.39
2022-08-12T08:42:15.533Z,52.29
2022-08-12T08:44:13.974Z,51.83
2022-08-12T08:46:17.292Z,52.08
2022-08-12T08:48:22.305Z,52.29
2022-08-12T08:50:25.620Z,52.35
2022-08-12T08:52:39.636Z,52.45
2022-08-12T08:54:44.283Z,52.45
2022-08-12T08:56:50.452Z,52.35
2022-08-12T08:58:54.199Z,52.09
2022-08-12T09:00:57.589Z,52.28
2022-08-12T09:03:04.538Z,52.71
2022-08-12T09:05:43.106Z,52.89
2022-08-12T09:08:09.196Z,52.80
2022-08-12T09:13:02.498Z,52.88
2022-08-12T09:15:17.099Z,53.12
2022-08-12T09:17:25.372Z,53.38
2022-08-12T09:19:29.607Z,53.86
2022-08-12T09:26:28.330Z,53.55
2022-08-12T09:28:37.242Z,53.75
2022-08-12T09:30:45.595Z,53.63
2022-08-12T09:33:04.398Z,53.77
2022-08-12T09:35:22.075Z,54.24
2022-08-12T09:37:26.907Z,53.89
2022-08-12T09:40:02.131Z,53.57
2022-08-12T09:42:39.128Z,52.84
2022-08-12T09:45:03.500Z,51.83
2022-08-12T09:47:15.321Z,51.71
2022-08-12T09:49:18.981Z,51.23
2022-08-12T09:51:37.435Z,51.20
2022-08-12T09:53:42.232Z,51.24
2022-08-12T09:55:59.621Z,51.38
2022-08-12T09:58:56.855Z,51.63
2022-08-12T10:00:52.069Z,52.08
2022-08-12T10:03:02.359Z,52.54
2022-08-12T10:05:13.717Z,52.68
2022-08-12T10:07:24.809Z,51.92
2022-08-12T10:09:58.658Z,51.01
2022-08-12T10:12:12.829Z,50.58
2022-08-12T10:14:18.930Z,49.79
2022-08-12T10:16:43.951Z,49.75
2022-08-12T10:18:51.529Z,49.69
2022-08-12T10:20:57.319Z,49.92
2022-08-12T10:23:01.942Z,50.46
2022-08-12T10:26:18.478Z,50.14
2022-08-12T10:28:16.219Z,50.20
2022-08-12T10:30:39.791Z,50.20
2022-08-12T10:32:58.661Z,49.97
2022-08-12T10:35:02.665Z,49.77
2022-08-12T10:37:22.563Z,49.41
2022-08-12T10:40:06.887Z,49.96
2022-08-12T10:42:14.809Z,50.60
2022-08-12T10:44:19.532Z,50.46
2022-08-12T10:46:24.332Z,50.48
2022-08-12T10:48:36.627Z,50.78
2022-08-12T10:51:01.160Z,51.19
2022-08-12T10:53:10.219Z,50.91
2022-08-12T10:55:13.907Z,51.31
2022-08-12T10:58:15.402Z,51.13
2022-08-12T11:00:33.936Z,50.27
2022-08-12T11:04:25.353Z,49.22
2022-08-12T11:04:48.823Z,49.22
2022-08-12T11:07:06.815Z,49.90
2022-08-12T11:09:41.719Z,50.00
2022-08-12T11:12:36.017Z,50.13
2022-08-12T11:14:47.871Z,50.37
2022-08-12T11:16:33.002Z,49.87
2022-08-12T11:18:37.128Z,49.97
2022-08-12T11:20:42.938Z,50.16
2022-08-12T11:22:58.517Z,49.79
2022-08-12T11:25:10.411Z,49.53
2022-08-12T11:27:15.520Z,49.41
2022-08-12T11:29:22.833Z,49.46
2022-08-12T11:31:26.666Z,49.43
2022-08-12T11:34:05.952Z,49.60
2022-08-12T11:36:16.309Z,48.57
2022-08-12T11:38:21.751Z,48.95
2022-08-12T11:40:26.939Z,49.44
2022-08-12T11:42:42.463Z,49.15
2022-08-12T11:44:50.143Z,48.79
2022-08-12T11:46:55.382Z,48.77
2022-08-12T11:48:58.848Z,48.55
2022-08-12T11:51:02.399Z,48.44
2022-08-12T11:53:56.519Z,48.41
2022-08-12T11:55:33.249Z,48.45
2022-08-12T11:58:33.933Z,48.14
2022-08-12T12:02:37.750Z,48.86
2022-08-12T12:04:41.474Z,48.35
2022-08-12T12:06:49.798Z,48.28
2022-08-12T12:09:00.563Z,48.49
2022-08-12T12:11:09.449Z,48.64
2022-08-12T12:13:23.207Z,48.09
2022-08-12T12:15:40.658Z,48.13
2022-08-12T12:17:45.008Z,48.40
2022-08-12T12:19:48.832Z,48.64
2022-08-12T12:21:52.563Z,49.13
2022-08-12T12:24:00.715Z,48.95
2022-08-12T12:26:07.773Z,48.43
2022-08-12T12:28:36.616Z,48.45
2022-08-12T12:30:37.370Z,48.17
2022-08-12T12:32:41.318Z,48.19
2022-08-12T12:35:44.476Z,48.64
2022-08-12T12:38:04.463Z,48.80
2022-08-12T12:39:55.215Z,48.37
2022-08-12T12:42:42.553Z,48.16
2022-08-12T12:44:25.913Z,47.71
2022-08-12T12:46:44.675Z,47.89
2022-08-12T12:48:48.551Z,47.69
2022-08-12T12:51:09.316Z,47.29
2022-08-12T12:54:06.305Z,47.34
2022-08-12T12:55:46.564Z,47.63
2022-08-12T12:58:00.009Z,47.56
2022-08-12T13:00:21.715Z,46.83
2022-08-12T13:02:42.355Z,46.54
2022-08-12T13:04:46.837Z,46.56
2022-08-12T13:06:52.366Z,46.50
2022-08-12T13:08:56.778Z,46.51
2022-08-12T13:11:09.411Z,46.47
2022-08-12T13:14:07.993Z,46.36
2022-08-12T13:15:43.547Z,46.47
2022-08-12T13:18:02.108Z,46.60
2022-08-12T13:20:08.123Z,46.47
2022-08-12T13:22:20.670Z,46.70
2022-08-12T13:24:24.925Z,47.23
2022-08-12T13:26:40.371Z,46.88
2022-08-12T13:28:49.689Z,46.95
2022-08-12T13:31:00.347Z,46.61
2022-08-12T13:33:04.358Z,46.40
2022-08-12T13:35:19.804Z,46.17
2022-08-12T13:37:43.928Z,46.08
2022-08-12T13:39:57.771Z,45.36
2022-08-12T13:42:02.799Z,45.13
2022-08-12T13:44:11.934Z,45.50
2022-08-12T13:46:16.570Z,45.72
2022-08-12T13:48:20.214Z,45.89
2022-08-12T13:50:30.075Z,46.03
2022-08-12T13:52:35.370Z,45.90
2022-08-12T13:54:38.993Z,46.26
2022-08-12T13:56:42.605Z,46.12
2022-08-12T13:58:54.967Z,46.02
2022-08-12T14:01:06.510Z,46.23
2022-08-12T14:03:14.817Z,46.98
2022-08-12T14:05:27.540Z,47.27
2022-08-12T14:07:56.366Z,47.02
2022-08-12T14:10:23.144Z,46.93
2022-08-12T14:12:53.807Z,47.15
2022-08-12T14:15:00.535Z,47.71
2022-08-12T14:17:09.900Z,47.84
2022-08-12T14:19:22.670Z,48.06
2022-08-12T14:21:30.164Z,47.87
2022-08-12T14:24:04.038Z,47.07
2022-08-12T14:26:12.259Z,47.63
2022-08-12T14:28:18.198Z,48.21
2022-08-12T14:30:29.383Z,48.43
2022-08-12T14:32:36.229Z,48.38
2022-08-12T14:34:39.943Z,48.26
2022-08-12T14:36:47.727Z,48.22
2022-08-12T14:38:54.314Z,48.09
2022-08-12T14:40:59.910Z,48.42
2022-08-12T14:43:06.133Z,47.95
2022-08-12T14:45:11.183Z,47.92
2022-08-12T14:47:17.852Z,47.87
2022-08-12T14:50:00.979Z,48.09
2022-08-12T14:52:56.576Z,47.73
2022-08-12T14:57:00.181Z,47.64
2022-08-12T14:59:23.329Z,47.43
2022-08-12T15:01:43.042Z,47.85
2022-08-12T15:03:56.912Z,47.74
2022-08-12T15:06:06.041Z,47.63
2022-08-12T15:08:29.556Z,47.24
2022-08-12T15:10:37.191Z,47.63
2022-08-12T15:12:40.992Z,47.84
2022-08-12T15:14:45.728Z,47.95
2022-08-12T15:16:49.968Z,47.73
2022-08-12T15:18:59.233Z,47.58
2022-08-12T15:21:06.220Z,47.86
2022-08-12T15:23:18.047Z,47.74
2022-08-12T15:25:25.129Z,47.84
2022-08-12T15:28:04.500Z,47.61
2022-08-12T15:29:52.494Z,47.99
2022-08-12T15:32:01.933Z,47.84
2022-08-12T15:34:09.518Z,48.05
2022-08-12T15:36:19.517Z,48.28
2022-08-12T15:38:40.381Z,47.91
2022-08-12T15:40:48.257Z,48.42
2022-08-12T15:42:52.498Z,48.78
2022-08-12T15:44:56.473Z,48.61
2022-08-12T15:47:00.091Z,48.82
2022-08-12T15:49:04.074Z,49.28
2022-08-12T15:51:58.832Z,49.09
2022-08-12T15:54:32.245Z,49.01
2022-08-12T15:56:31.976Z,48.78
2022-08-12T15:58:38.525Z,48.96
2022-08-12T16:00:42.770Z,49.27
2022-08-12T16:02:50.328Z,49.67
2022-08-12T16:04:55.011Z,49.82
2022-08-12T16:07:08.795Z,49.92
2022-08-12T16:09:15.807Z,49.78
2022-08-12T16:11:25.673Z,49.72
2022-08-12T16:13:34.417Z,49.82
2022-08-12T16:15:42.226Z,49.07
2022-08-12T16:18:19.105Z,48.51
2022-08-12T16:20:11.778Z,48.86
2022-08-12T16:22:17.808Z,48.65
2022-08-12T16:24:21.907Z,48.63
2022-08-12T16:26:27.521Z,48.60
2022-08-12T16:28:36.981Z,48.45
2022-08-12T16:30:41.466Z,48.18
2022-08-12T16:32:53.937Z,48.51
2022-08-12T16:34:58.065Z,48.18
2022-08-12T16:37:04.601Z,48.44
2022-08-12T16:39:12.755Z,48.24
2022-08-12T16:41:19.478Z,48.31
2022-08-12T16:43:25.703Z,48.49
2022-08-12T16:45:32.247Z,48.84
2022-08-12T16:47:58.558Z,49.00
2022-08-12T16:50:03.071Z,49.23
2022-08-12T16:52:12.647Z,49.19
2022-08-12T16:54:26.622Z,49.37
2022-08-12T16:56:39.715Z,49.32
2022-08-12T16:58:54.743Z,49.10
2022-08-12T17:01:01.924Z,49.22
2022-08-12T17:03:06.372Z,49.46
2022-08-12T17:05:16.141Z,49.27
2022-08-12T17:07:21.471Z,49.75
2022-08-12T17:09:27.486Z,49.99
2022-08-12T17:11:44.022Z,50.05
2022-08-12T17:13:53.414Z,50.06
2022-08-12T17:16:06.175Z,50.23
2022-08-12T17:18:42.118Z,50.54
2022-08-12T17:20:42.743Z,50.66
2022-08-12T17:22:57.644Z,50.94
2022-08-12T17:25:14.496Z,50.97
2022-08-12T17:27:20.865Z,51.02
2022-08-12T17:30:01.238Z,51.04
2022-08-12T17:32:00.646Z,51.14
2022-08-12T17:34:07.130Z,51.04
2022-08-12T17:36:21.163Z,50.99
2022-08-12T17:38:33.842Z,50.84
2022-08-12T17:40:40.362Z,50.74
2022-08-12T17:42:47.577Z,50.75
2022-08-12T17:44:52.854Z,50.69
2022-08-12T17:46:57.997Z,50.50
2022-08-12T17:49:06.912Z,50.56
2022-08-12T17:51:24.727Z,50.78
2022-08-12T17:53:29.386Z,50.60
2022-08-12T17:55:54.562Z,50.59
2022-08-12T17:58:00.244Z,50.42
2022-08-12T18:00:06.493Z,50.73
2022-08-12T18:02:13.669Z,50.42
2022-08-12T18:04:21.646Z,50.43
2022-08-12T18:06:27.920Z,50.58
2022-08-12T18:08:33.699Z,50.41
2022-08-12T18:10:55.358Z,50.44
2022-08-12T18:13:01.547Z,50.10
2022-08-12T18:15:08.783Z,50.38
2022-08-12T18:17:14.158Z,50.80
2022-08-12T18:19:18.068Z,50.85
2022-08-12T18:21:21.892Z,50.93
2022-08-12T18:23:27.251Z,51.00
2022-08-12T18:26:16.642Z,50.96
2022-08-12T18:28:19.434Z,51.50
2022-08-12T18:30:33.605Z,51.05
2022-08-12T18:32:58.331Z,51.17
2022-08-12T18:35:11.011Z,51.12
2022-08-12T18:37:40.907Z,51.09
2022-08-12T18:39:58.119Z,51.47
2022-08-12T18:42:02.226Z,51.55
2022-08-12T18:44:10.151Z,51.84
2022-08-12T18:46:17.715Z,51.97
2022-08-12T18:48:24.554Z,52.15
2022-08-12T18:50:49.011Z,52.19
2022-08-12T18:52:54.603Z,52.25
2022-08-12T18:55:06.047Z,52.39
2022-08-12T18:57:15.518Z,52.83
2022-08-12T19:00:01.334Z,53.01
2022-08-12T19:02:20.629Z,53.10
2022-08-12T19:04:17.856Z,53.43
2022-08-12T19:06:21.477Z,53.45
2022-08-12T19:08:31.574Z,53.99
2022-08-12T19:10:37.065Z,54.19
2022-08-12T19:13:01.025Z,54.66
2022-08-12T19:15:08.510Z,54.74
2022-08-12T19:17:15.187Z,54.83
2022-08-12T19:19:20.635Z,55.27
2022-08-12T19:21:25.350Z,55.28
2022-08-12T19:23:34.907Z,55.23
2022-08-12T19:25:59.634Z,55.22
2022-08-12T19:28:06.781Z,55.33
2022-08-12T19:30:33.387Z,55.10
2022-08-12T19:32:49.382Z,55.05
2022-08-12T19:36:06.867Z,55.01
2022-08-12T19:37:27.565Z,54.90
2022-08-12T19:40:09.228Z,55.21
2022-08-12T19:42:07.099Z,55.20
2022-08-12T19:44:16.425Z,55.39
2022-08-12T19:46:27.706Z,55.42
2022-08-12T19:48:32.874Z,55.51
2022-08-12T19:50:39.250Z,55.86
2022-08-12T19:52:46.334Z,56.25
2022-08-12T19:54:56.379Z,57.02
2022-08-12T19:57:01.659Z,57.16
2022-08-12T19:59:23.098Z,57.89
2022-08-12T20:01:28.640Z,57.86
2022-08-12T20:03:57.578Z,58.11
2022-08-12T20:06:09.137Z,58.14
2022-08-12T20:08:31.668Z,57.95
2022-08-12T20:10:43.879Z,58.15
2022-08-12T20:13:17.635Z,58.26
2022-08-12T20:15:12.103Z,58.53
2022-08-12T20:17:23.518Z,58.74
2022-08-12T20:19:52.996Z,58.78
2022-08-12T20:21:52.495Z,58.68
2022-08-12T20:24:00.761Z,59.12
2022-08-12T20:26:08.821Z,59.50
2022-08-12T20:28:13.984Z,59.33
2022-08-12T20:30:17.861Z,59.52
2022-08-12T20:32:29.667Z,59.66
2022-08-12T20:34:33.804Z,59.48
2022-08-12T20:36:41.134Z,59.66
2022-08-12T20:38:46.877Z,59.40
2022-08-12T20:40:51.234Z,59.88
2022-08-12T20:42:55.855Z,59.97
2022-08-12T20:44:59.761Z,60.38
2022-08-12T20:47:18.633Z,60.81
2022-08-12T20:49:25.874Z,61.13
2022-08-12T20:51:55.273Z,61.21
2022-08-12T20:54:00.669Z,61.63
2022-08-12T20:56:19.630Z,62.29
2022-08-12T20:58:23.608Z,62.46
2022-08-12T21:00:28.425Z,62.44
2022-08-12T21:02:32.702Z,62.82
2022-08-12T21:04:55.594Z,62.92
2022-08-12T21:07:04.696Z,63.27
2022-08-12T21:09:12.448Z,63.32
2022-08-12T21:11:22.443Z,63.51
2022-08-12T21:13:38.962Z,63.59
2022-08-12T21:15:53.625Z,63.89
2022-08-12T21:18:11.903Z,63.88
2022-08-12T21:20:26.453Z,64.00
2022-08-12T21:22:33.528Z,64.21
2022-08-12T21:24:36.961Z,64.51
2022-08-12T21:26:53.387Z,64.48
2022-08-12T21:29:01.113Z,64.83
2022-08-12T21:32:34.591Z,64.65
2022-08-12T21:33:31.081Z,64.85
2022-08-12T21:35:40.075Z,64.79
2022-08-12T21:37:53.062Z,64.62
2022-08-12T21:39:57.410Z,64.50
2022-08-12T21:42:02.475Z,64.54
2022-08-12T21:44:24.485Z,64.59
2022-08-12T21:46:38.907Z,64.44
2022-08-12T21:48:42.734Z,64.65
2022-08-12T21:50:53.910Z,64.57
2022-08-12T21:52:59.930Z,64.55
2022-08-12T21:55:17.732Z,64.46
2022-08-12T21:57:23.823Z,64.92
2022-08-12T21:59:28.034Z,64.50
2022-08-12T22:01:35.763Z,65.07
2022-08-12T22:04:11.442Z,65.08
2022-08-12T22:06:31.286Z,65.08
2022-08-12T22:08:43.934Z,65.15
2022-08-12T22:10:52.301Z,65.51
2022-08-12T22:12:57.874Z,65.71
2022-08-12T22:15:06.670Z,65.50
2022-08-12T22:17:11.445Z,65.59
2022-08-12T22:19:23.892Z,65.32
2022-08-12T22:21:29.093Z,65.75
2022-08-12T22:23:51.811Z,65.61
2022-08-12T22:26:00.001Z,65.73
2022-08-12T22:28:24.489Z,65.60
2022-08-12T22:30:46.328Z,65.18
2022-08-12T22:32:51.539Z,65.24
2022-08-12T22:35:22.276Z,65.16
2022-08-12T22:37:29.344Z,64.97
2022-08-12T22:39:33.735Z,64.79
2022-08-12T22:41:56.977Z,64.58
2022-08-12T22:44:19.313Z,64.85
2022-08-12T22:46:53.138Z,65.03
2022-08-12T22:48:57.787Z,64.96
2022-08-12T22:51:01.385Z,65.13
2022-08-12T22:53:19.326Z,65.66
2022-08-12T22:55:59.285Z,65.94
2022-08-12T22:57:53.330Z,65.67
2022-08-12T22:59:58.777Z,66.03
2022-08-12T23:02:02.549Z,66.21
2022-08-12T23:04:08.039Z,66.35
2022-08-12T23:06:14.403Z,66.09
2022-08-12T23:08:19.373Z,66.17
2022-08-12T23:10:24.666Z,66.57
2022-08-12T23:12:46.825Z,66.53
2022-08-12T23:14:52.656Z,66.77
2022-08-12T23:16:57.571Z,66.91
2022-08-12T23:19:10.666Z,67.10
2022-08-12T23:21:23.413Z,67.43
2022-08-12T23:23:29.993Z,67.65
2022-08-12T23:25:55.385Z,67.68
2022-08-12T23:28:29.383Z,67.52
2022-08-12T23:30:34.957Z,67.56
2022-08-12T23:32:42.717Z,67.93
2022-08-12T23:34:50.570Z,68.10
2022-08-12T23:36:54.801Z,68.02
2022-08-12T23:39:02.003Z,68.13
2022-08-12T23:41:06.934Z,68.54
2022-08-12T23:43:12.412Z,68.44
2022-08-12T23:45:20.568Z,68.46
2022-08-12T23:47:38.392Z,68.69
2022-08-12T23:49:57.329Z,68.70
2022-08-12T23:52:07.445Z,68.63
2022-08-12T23:54:32.742Z,68.51
2022-08-12T23:56:39.953Z,69.06
2022-08-12T23:58:52.871Z,69.10
